sensor_id;sensor_type;location;lat;lon;timestamp;P1;durP1;ratioP1;P2;durP2;ratioP2
17967;SDS011;9109;48.050;11.696;2023-03-20T05:05:32;7.60;;;2.87;;
17967;SDS011;9109;48.050;11.696;2023-03-20T05:08:37;5.63;;;1.80;;
17967;SDS011;9109;48.050;11.696;2023-03-20T05:11:39;4.63;;;1.80;;
17967;SDS011;9109;48.050;11.696;2023-03-20T05:14:41;3.20;;;2.03;;
17967;SDS011;9109;48.050;11.696;2023-03-20T05:17:43;3.60;;;2.00;;
17967;SDS011;9109;48.050;11.696;2023-03-20T05:20:47;3.03;;;1.80;;
17967;SDS011;9109;48.050;11.696;2023-03-20T05:23:49;3.37;;;1.87;;
17967;SDS011;9109;48.050;11.696;2023-03-20T05:26:51;4.47;;;2.23;;
17967;SDS011;9109;48.050;11.696;2023-03-20T05:29:52;5.60;;;1.83;;
17967;SDS011;9109;48.050;11.696;2023-03-20T05:32:54;2.83;;;1.83;;
17967;SDS011;9109;48.050;11.696;2023-03-20T05:35:58;2.67;;;2.10;;
17967;SDS011;9109;48.050;11.696;2023-03-20T05:38:59;3.23;;;2.10;;
17967;SDS011;9109;48.050;11.696;2023-03-20T05:42:01;4.53;;;2.00;;
17967;SDS011;9109;48.050;11.696;2023-03-20T05:45:04;2.47;;;1.70;;
17967;SDS011;9109;48.050;11.696;2023-03-20T05:48:06;3.43;;;2.10;;
17967;SDS011;9109;48.050;11.696;2023-03-20T05:51:09;2.60;;;2.00;;
17967;SDS011;9109;48.050;11.696;2023-03-20T05:54:11;3.13;;;2.20;;
17967;SDS011;9109;48.050;11.696;2023-03-20T05:57:13;2.67;;;2.00;;
17967;SDS011;9109;48.050;11.696;2023-03-20T06:00:16;2.50;;;2.00;;
17967;SDS011;9109;48.050;11.696;2023-03-20T06:03:19;3.70;;;2.27;;
17967;SDS011;9109;48.050;11.696;2023-03-20T06:06:22;3.73;;;2.33;;
17967;SDS011;9109;48.050;11.696;2023-03-20T06:09:24;3.07;;;2.23;;
17967;SDS011;9109;48.050;11.696;2023-03-20T06:12:26;4.23;;;2.20;;
17967;SDS011;9109;48.050;11.696;2023-03-20T06:15:28;5.20;;;2.40;;
17967;SDS011;9109;48.050;11.696;2023-03-20T06:18:30;3.17;;;2.30;;
17967;SDS011;9109;48.050;11.696;2023-03-20T06:21:33;4.87;;;2.80;;
17967;SDS011;9109;48.050;11.696;2023-03-20T06:24:35;3.50;;;2.27;;
17967;SDS011;9109;48.050;11.696;2023-03-20T06:27:37;5.73;;;2.70;;
17967;SDS011;9109;48.050;11.696;2023-03-20T06:30:39;3.07;;;2.30;;
17967;SDS011;9109;48.050;11.696;2023-03-20T06:33:41;4.23;;;2.87;;
17967;SDS011;9109;48.050;11.696;2023-03-20T06:36:45;4.57;;;2.80;;
17967;SDS011;9109;48.050;11.696;2023-03-20T06:39:47;4.97;;;2.77;;
17967;SDS011;9109;48.050;11.696;2023-03-20T06:42:49;4.17;;;3.07;;
17967;SDS011;9109;48.050;11.696;2023-03-20T06:45:51;5.77;;;3.13;;
17967;SDS011;9109;48.050;11.696;2023-03-20T06:48:53;5.17;;;3.03;;
17967;SDS011;9109;48.050;11.696;2023-03-20T06:51:57;8.13;;;3.27;;
17967;SDS011;9109;48.050;11.696;2023-03-20T06:54:59;6.20;;;3.30;;
17967;SDS011;9109;48.050;11.696;2023-03-20T06:58:01;5.80;;;2.97;;
17967;SDS011;9109;48.050;11.696;2023-03-20T07:01:07;5.53;;;3.43;;
17967;SDS011;9109;48.050;11.696;2023-03-20T07:04:09;8.20;;;3.57;;
17967;SDS011;9109;48.050;11.696;2023-03-20T07:07:13;5.70;;;3.30;;
17967;SDS011;9109;48.050;11.696;2023-03-20T07:10:15;5.70;;;3.60;;
17967;SDS011;9109;48.050;11.696;2023-03-20T07:13:17;6.40;;;3.37;;
17967;SDS011;9109;48.050;11.696;2023-03-20T07:16:22;5.90;;;3.70;;
17967;SDS011;9109;48.050;11.696;2023-03-20T07:19:24;7.10;;;3.37;;
17967;SDS011;9109;48.050;11.696;2023-03-20T07:22:28;7.67;;;3.77;;
17967;SDS011;9109;48.050;11.696;2023-03-20T07:25:32;6.43;;;4.00;;
17967;SDS011;9109;48.050;11.696;2023-03-20T07:28:35;7.77;;;3.73;;
17967;SDS011;9109;48.050;11.696;2023-03-20T07:31:37;5.87;;;4.13;;
17967;SDS011;9109;48.050;11.696;2023-03-20T07:34:39;8.00;;;3.57;;
17967;SDS011;9109;48.050;11.696;2023-03-20T07:37:47;10.77;;;4.10;;
17967;SDS011;9109;48.050;11.696;2023-03-20T07:40:52;5.87;;;4.10;;
17967;SDS011;9109;48.050;11.696;2023-03-20T07:43:54;11.47;;;4.20;;
17967;SDS011;9109;48.050;11.696;2023-03-20T07:46:56;7.07;;;4.03;;
17967;SDS011;9109;48.050;11.696;2023-03-20T07:49:58;5.43;;;3.93;;
17967;SDS011;9109;48.050;11.696;2023-03-20T07:53:01;7.53;;;4.50;;
17967;SDS011;9109;48.050;11.696;2023-03-20T07:56:03;8.63;;;3.97;;
17967;SDS011;9109;48.050;11.696;2023-03-20T07:59:06;6.40;;;4.20;;
17967;SDS011;9109;48.050;11.696;2023-03-20T08:02:09;6.23;;;4.13;;
17967;SDS011;9109;48.050;11.696;2023-03-20T08:05:15;7.50;;;3.90;;
17967;SDS011;9109;48.050;11.696;2023-03-20T08:08:18;7.37;;;4.13;;
17967;SDS011;9109;48.050;11.696;2023-03-20T08:11:20;8.40;;;4.37;;
17967;SDS011;9109;48.050;11.696;2023-03-20T08:14:22;8.13;;;4.47;;
17967;SDS011;9109;48.050;11.696;2023-03-20T08:17:24;9.47;;;4.23;;
17967;SDS011;9109;48.050;11.696;2023-03-20T08:20:26;8.13;;;4.63;;
17967;SDS011;9109;48.050;11.696;2023-03-20T08:23:31;7.53;;;4.73;;
17967;SDS011;9109;48.050;11.696;2023-03-20T08:26:33;6.33;;;4.03;;
17967;SDS011;9109;48.050;11.696;2023-03-20T08:29:35;5.50;;;4.07;;
17967;SDS011;9109;48.050;11.696;2023-03-20T08:32:37;7.47;;;4.43;;
17967;SDS011;9109;48.050;11.696;2023-03-20T08:35:39;6.10;;;4.30;;
17967;SDS011;9109;48.050;11.696;2023-03-20T08:38:42;7.00;;;4.40;;
17967;SDS011;9109;48.050;11.696;2023-03-20T08:41:44;7.90;;;4.50;;
17967;SDS011;9109;48.050;11.696;2023-03-20T08:44:46;7.17;;;4.47;;
17967;SDS011;9109;48.050;11.696;2023-03-20T08:47:48;9.10;;;4.67;;
17967;SDS011;9109;48.050;11.696;2023-03-20T08:50:50;5.33;;;4.20;;
17967;SDS011;9109;48.050;11.696;2023-03-20T08:53:53;5.23;;;3.80;;
17967;SDS011;9109;48.050;11.696;2023-03-20T08:56:55;8.27;;;4.17;;
17967;SDS011;9109;48.050;11.696;2023-03-20T08:59:57;8.23;;;3.60;;
17967;SDS011;9109;48.050;11.696;2023-03-20T09:03:00;6.20;;;3.90;;
17967;SDS011;9109;48.050;11.696;2023-03-20T09:06:03;6.97;;;3.67;;
17967;SDS011;9109;48.050;11.696;2023-03-20T09:09:08;4.93;;;3.53;;
17967;SDS011;9109;48.050;11.696;2023-03-20T09:12:10;4.73;;;3.30;;
17967;SDS011;9109;48.050;11.696;2023-03-20T09:15:11;4.53;;;2.93;;
17967;SDS011;9109;48.050;11.696;2023-03-20T09:18:13;4.60;;;3.40;;
17967;SDS011;9109;48.050;11.696;2023-03-20T09:21:15;5.30;;;3.30;;
17967;SDS011;9109;48.050;11.696;2023-03-20T09:24:19;4.40;;;3.13;;
17967;SDS011;9109;48.050;11.696;2023-03-20T09:27:20;4.30;;;2.87;;
17967;SDS011;9109;48.050;11.696;2023-03-20T09:30:23;5.23;;;3.27;;
17967;SDS011;9109;48.050;11.696;2023-03-20T09:33:25;6.77;;;2.53;;
17967;SDS011;9109;48.050;11.696;2023-03-20T09:36:27;4.50;;;3.10;;
17967;SDS011;9109;48.050;11.696;2023-03-20T09:39:30;6.73;;;3.40;;
17967;SDS011;9109;48.050;11.696;2023-03-20T09:42:37;9.80;;;2.90;;
17967;SDS011;9109;48.050;11.696;2023-03-20T09:45:49;4.13;;;2.73;;
17967;SDS011;9109;48.050;11.696;2023-03-20T09:49:01;2.03;;;1.43;;
17967;SDS011;9109;48.050;11.696;2023-03-20T09:52:20;2.57;;;1.90;;
17967;SDS011;9109;48.050;11.696;2023-03-20T09:55:30;2.00;;;1.80;;
17967;SDS011;9109;48.050;11.696;2023-03-20T09:58:35;2.77;;;1.60;;
17967;SDS011;9109;48.050;11.696;2023-03-20T10:01:41;1.83;;;1.53;;
17967;SDS011;9109;48.050;11.696;2023-03-20T10:04:46;3.60;;;1.63;;
17967;SDS011;9109;48.050;11.696;2023-03-20T10:07:49;5.90;;;1.53;;
17967;SDS011;9109;48.050;11.696;2023-03-20T10:10:55;2.90;;;1.50;;
17967;SDS011;9109;48.050;11.696;2023-03-20T10:14:06;4.40;;;1.40;;
17967;SDS011;9109;48.050;11.696;2023-03-20T10:17:27;1.87;;;1.30;;
17967;SDS011;9109;48.050;11.696;2023-03-20T10:20:40;1.77;;;1.40;;
17967;SDS011;9109;48.050;11.696;2023-03-20T10:23:49;3.37;;;1.40;;
17967;SDS011;9109;48.050;11.696;2023-03-20T10:27:01;1.60;;;1.30;;
17967;SDS011;9109;48.050;11.696;2023-03-20T10:30:25;4.03;;;1.40;;
17967;SDS011;9109;48.050;11.696;2023-03-20T10:33:37;2.03;;;1.30;;
17967;SDS011;9109;48.050;11.696;2023-03-20T10:36:49;4.60;;;1.40;;
17967;SDS011;9109;48.050;11.696;2023-03-20T10:40:02;2.17;;;1.30;;
17967;SDS011;9109;48.050;11.696;2023-03-20T10:43:28;1.77;;;1.23;;
17967;SDS011;9109;48.050;11.696;2023-03-20T10:46:34;1.67;;;1.13;;
17967;SDS011;9109;48.050;11.696;2023-03-20T10:49:41;5.50;;;1.17;;
17967;SDS011;9109;48.050;11.696;2023-03-20T10:52:48;1.90;;;1.30;;
17967;SDS011;9109;48.050;11.696;2023-03-20T10:55:53;1.77;;;1.23;;
17967;SDS011;9109;48.050;11.696;2023-03-20T10:59:00;1.13;;;0.97;;
17967;SDS011;9109;48.050;11.696;2023-03-20T11:02:08;1.30;;;0.90;;
17967;SDS011;9109;48.050;11.696;2023-03-20T11:05:19;1.73;;;1.00;;
17967;SDS011;9109;48.050;11.696;2023-03-20T11:08:24;1.60;;;1.07;;
17967;SDS011;9109;48.050;11.696;2023-03-20T11:11:33;4.13;;;1.07;;
17967;SDS011;9109;48.050;11.696;2023-03-20T11:14:37;3.80;;;0.70;;
17967;SDS011;9109;48.050;11.696;2023-03-20T11:17:39;2.30;;;0.93;;
17967;SDS011;9109;48.050;11.696;2023-03-20T11:20:43;1.10;;;0.77;;
17967;SDS011;9109;48.050;11.696;2023-03-20T11:23:47;0.80;;;0.70;;
17967;SDS011;9109;48.050;11.696;2023-03-20T11:26:50;1.83;;;0.77;;
17967;SDS011;9109;48.050;11.696;2023-03-20T11:29:56;0.60;;;0.60;;
17967;SDS011;9109;48.050;11.696;2023-03-20T11:33:02;1.47;;;0.80;;
17967;SDS011;9109;48.050;11.696;2023-03-20T11:36:35;0.90;;;0.60;;
17967;SDS011;9109;48.050;11.696;2023-03-20T11:40:28;0.77;;;0.60;;
17967;SDS011;9109;48.050;11.696;2023-03-20T11:48:03;2.28;;;0.63;;
17967;SDS011;9109;48.050;11.696;2023-03-20T11:52:20;0.80;;;0.70;;
17967;SDS011;9109;48.050;11.696;2023-03-20T11:59:43;1.03;;;0.83;;
17967;SDS011;9109;48.050;11.696;2023-03-20T12:02:54;0.80;;;0.60;;
17967;SDS011;9109;48.050;11.696;2023-03-20T12:06:12;2.40;;;0.73;;
17967;SDS011;9109;48.050;11.696;2023-03-20T12:12:45;3.83;;;0.67;;
17967;SDS011;9109;48.050;11.696;2023-03-20T12:15:52;2.00;;;0.90;;
17967;SDS011;9109;48.050;11.696;2023-03-20T12:19:00;1.10;;;0.90;;
17967;SDS011;9109;48.050;11.696;2023-03-20T12:22:13;1.77;;;1.00;;
17967;SDS011;9109;48.050;11.696;2023-03-20T12:25:26;2.47;;;0.70;;
17967;SDS011;9109;48.050;11.696;2023-03-20T12:28:32;1.48;;;0.80;;
17967;SDS011;9109;48.050;11.696;2023-03-20T12:31:40;1.35;;;0.70;;
17967;SDS011;9109;48.050;11.696;2023-03-20T12:34:49;1.57;;;0.80;;
17967;SDS011;9109;48.050;11.696;2023-03-20T12:37:55;4.03;;;0.97;;
17967;SDS011;9109;48.050;11.696;2023-03-20T12:41:02;1.20;;;0.90;;
17967;SDS011;9109;48.050;11.696;2023-03-20T12:44:22;2.95;;;0.70;;
17967;SDS011;9109;48.050;11.696;2023-03-20T12:47:39;1.20;;;0.90;;
17967;SDS011;9109;48.050;11.696;2023-03-20T12:50:53;1.00;;;0.87;;
17967;SDS011;9109;48.050;11.696;2023-03-20T12:54:06;1.07;;;0.97;;
17967;SDS011;9109;48.050;11.696;2023-03-20T12:57:20;4.30;;;1.00;;
17967;SDS011;9109;48.050;11.696;2023-03-20T13:00:31;2.07;;;0.90;;
17967;SDS011;9109;48.050;11.696;2023-03-20T13:07:23;0.90;;;0.73;;
17967;SDS011;9109;48.050;11.696;2023-03-20T13:10:36;0.98;;;0.77;;
17967;SDS011;9109;48.050;11.696;2023-03-20T13:13:42;1.57;;;1.10;;
17967;SDS011;9109;48.050;11.696;2023-03-20T13:16:49;1.77;;;1.13;;
17967;SDS011;9109;48.050;11.696;2023-03-20T13:20:01;2.10;;;1.30;;
17967;SDS011;9109;48.050;11.696;2023-03-20T13:23:20;1.88;;;1.20;;
17967;SDS011;9109;48.050;11.696;2023-03-20T13:26:28;2.73;;;1.17;;
17967;SDS011;9109;48.050;11.696;2023-03-20T13:29:40;1.97;;;1.10;;
17967;SDS011;9109;48.050;11.696;2023-03-20T13:32:49;2.50;;;1.43;;
17967;SDS011;9109;48.050;11.696;2023-03-20T13:36:02;3.67;;;1.50;;
17967;SDS011;9109;48.050;11.696;2023-03-20T13:39:18;4.95;;;1.83;;
17967;SDS011;9109;48.050;11.696;2023-03-20T13:42:28;2.25;;;1.55;;
17967;SDS011;9109;48.050;11.696;2023-03-20T13:45:35;1.53;;;1.30;;
17967;SDS011;9109;48.050;11.696;2023-03-20T13:48:40;2.30;;;1.58;;
17967;SDS011;9109;48.050;11.696;2023-03-20T13:51:43;2.13;;;1.10;;
17967;SDS011;9109;48.050;11.696;2023-03-20T13:55:05;2.08;;;1.38;;
17967;SDS011;9109;48.050;11.696;2023-03-20T13:58:21;2.33;;;1.40;;
17967;SDS011;9109;48.050;11.696;2023-03-20T14:01:44;1.52;;;1.20;;
17967;SDS011;9109;48.050;11.696;2023-03-20T14:04:53;1.58;;;1.20;;
17967;SDS011;9109;48.050;11.696;2023-03-20T14:08:00;1.90;;;0.80;;
17967;SDS011;9109;48.050;11.696;2023-03-20T14:11:27;1.55;;;1.15;;
17967;SDS011;9109;48.050;11.696;2023-03-20T14:14:39;0.90;;;0.80;;
17967;SDS011;9109;48.050;11.696;2023-03-20T14:17:43;1.38;;;0.90;;
17967;SDS011;9109;48.050;11.696;2023-03-20T14:20:52;1.10;;;0.80;;
17967;SDS011;9109;48.050;11.696;2023-03-20T14:23:59;2.25;;;1.10;;
17967;SDS011;9109;48.050;11.696;2023-03-20T14:27:04;3.03;;;1.00;;
17967;SDS011;9109;48.050;11.696;2023-03-20T14:30:35;2.57;;;0.90;;
17967;SDS011;9109;48.050;11.696;2023-03-20T14:33:41;1.53;;;0.90;;
17967;SDS011;9109;48.050;11.696;2023-03-20T14:36:49;0.70;;;0.70;;
17967;SDS011;9109;48.050;11.696;2023-03-20T14:40:00;1.25;;;0.90;;
17967;SDS011;9109;48.050;11.696;2023-03-20T14:43:13;0.83;;;0.80;;
17967;SDS011;9109;48.050;11.696;2023-03-20T14:46:21;2.43;;;1.27;;
17967;SDS011;9109;48.050;11.696;2023-03-20T14:49:33;2.30;;;1.20;;
17967;SDS011;9109;48.050;11.696;2023-03-20T14:52:53;1.10;;;0.98;;
17967;SDS011;9109;48.050;11.696;2023-03-20T14:56:06;1.08;;;0.98;;
17967;SDS011;9109;48.050;11.696;2023-03-20T14:59:11;1.00;;;0.88;;
17967;SDS011;9109;48.050;11.696;2023-03-20T15:02:23;2.55;;;1.17;;
17967;SDS011;9109;48.050;11.696;2023-03-20T15:05:27;2.03;;;1.20;;
17967;SDS011;9109;48.050;11.696;2023-03-20T15:08:33;1.55;;;1.38;;
17967;SDS011;9109;48.050;11.696;2023-03-20T15:11:36;2.05;;;1.25;;
17967;SDS011;9109;48.050;11.696;2023-03-20T15:14:40;1.75;;;1.20;;
17967;SDS011;9109;48.050;11.696;2023-03-20T15:17:45;2.42;;;1.33;;
17967;SDS011;9109;48.050;11.696;2023-03-20T15:20:47;2.97;;;1.40;;
17967;SDS011;9109;48.050;11.696;2023-03-20T15:23:49;1.52;;;1.02;;
17967;SDS011;9109;48.050;11.696;2023-03-20T15:26:52;2.73;;;1.43;;
17967;SDS011;9109;48.050;11.696;2023-03-20T15:29:57;1.25;;;1.05;;
17967;SDS011;9109;48.050;11.696;2023-03-20T15:33:02;2.13;;;1.40;;
17967;SDS011;9109;48.050;11.696;2023-03-20T15:36:08;1.85;;;1.27;;
17967;SDS011;9109;48.050;11.696;2023-03-20T15:39:12;2.10;;;1.20;;
17967;SDS011;9109;48.050;11.696;2023-03-20T15:42:18;4.35;;;1.20;;
17967;SDS011;9109;48.050;11.696;2023-03-20T15:45:24;4.60;;;1.50;;
17967;SDS011;9109;48.050;11.696;2023-03-20T15:48:28;1.17;;;1.00;;
17967;SDS011;9109;48.050;11.696;2023-03-20T15:51:29;4.90;;;1.45;;
17967;SDS011;9109;48.050;11.696;2023-03-20T15:54:33;1.88;;;1.30;;
17967;SDS011;9109;48.050;11.696;2023-03-20T15:57:37;2.03;;;1.27;;
17967;SDS011;9109;48.050;11.696;2023-03-20T16:00:43;1.92;;;1.45;;
17967;SDS011;9109;48.050;11.696;2023-03-20T16:03:47;2.55;;;1.60;;
17967;SDS011;9109;48.050;11.696;2023-03-20T16:06:51;1.43;;;1.30;;
17967;SDS011;9109;48.050;11.696;2023-03-20T16:09:54;2.00;;;1.30;;
17967;SDS011;9109;48.050;11.696;2023-03-20T16:12:56;2.47;;;1.20;;
17967;SDS011;9109;48.050;11.696;2023-03-20T16:16:00;6.10;;;1.50;;
17967;SDS011;9109;48.050;11.696;2023-03-20T16:19:03;2.75;;;1.80;;
17967;SDS011;9109;48.050;11.696;2023-03-20T16:22:09;2.30;;;1.55;;
17967;SDS011;9109;48.050;11.696;2023-03-20T16:25:19;5.63;;;1.63;;
17967;SDS011;9109;48.050;11.696;2023-03-20T16:28:21;1.83;;;1.60;;
17967;SDS011;9109;48.050;11.696;2023-03-20T16:31:27;5.70;;;1.77;;
17967;SDS011;9109;48.050;11.696;2023-03-20T16:34:33;3.25;;;1.40;;
17967;SDS011;9109;48.050;11.696;2023-03-20T16:37:43;1.77;;;1.42;;
17967;SDS011;9109;48.050;11.696;2023-03-20T16:40:51;6.33;;;1.40;;
17967;SDS011;9109;48.050;11.696;2023-03-20T16:43:54;1.97;;;1.40;;
17967;SDS011;9109;48.050;11.696;2023-03-20T16:46:59;7.17;;;1.67;;
17967;SDS011;9109;48.050;11.696;2023-03-20T16:50:15;2.03;;;1.30;;
17967;SDS011;9109;48.050;11.696;2023-03-20T16:53:18;3.70;;;1.50;;
17967;SDS011;9109;48.050;11.696;2023-03-20T16:56:22;8.20;;;1.63;;
17967;SDS011;9109;48.050;11.696;2023-03-20T16:59:27;1.83;;;1.27;;
17967;SDS011;9109;48.050;11.696;2023-03-20T17:02:31;4.87;;;1.27;;
17967;SDS011;9109;48.050;11.696;2023-03-20T17:05:45;4.68;;;1.70;;
17967;SDS011;9109;48.050;11.696;2023-03-20T17:08:50;2.63;;;1.13;;
17967;SDS011;9109;48.050;11.696;2023-03-20T17:12:00;3.63;;;1.40;;
17967;SDS011;9109;48.050;11.696;2023-03-20T17:15:15;8.50;;;1.70;;
17967;SDS011;9109;48.050;11.696;2023-03-20T17:18:19;3.60;;;1.77;;
17967;SDS011;9109;48.050;11.696;2023-03-20T17:21:21;4.63;;;1.70;;
17967;SDS011;9109;48.050;11.696;2023-03-20T17:24:23;2.50;;;1.40;;
17967;SDS011;9109;48.050;11.696;2023-03-20T17:27:25;4.23;;;1.30;;
17967;SDS011;9109;48.050;11.696;2023-03-20T17:30:28;4.13;;;1.57;;
17967;SDS011;9109;48.050;11.696;2023-03-20T17:33:31;1.93;;;1.30;;
17967;SDS011;9109;48.050;11.696;2023-03-20T17:36:35;4.40;;;1.40;;
17967;SDS011;9109;48.050;11.696;2023-03-20T17:39:37;10.13;;;1.57;;
17967;SDS011;9109;48.050;11.696;2023-03-20T17:42:39;3.10;;;1.48;;
17967;SDS011;9109;48.050;11.696;2023-03-20T17:45:42;8.27;;;1.73;;
17967;SDS011;9109;48.050;11.696;2023-03-20T17:48:46;3.17;;;1.43;;
17967;SDS011;9109;48.050;11.696;2023-03-20T17:51:49;9.03;;;1.43;;
17967;SDS011;9109;48.050;11.696;2023-03-20T17:54:51;6.87;;;1.53;;
17967;SDS011;9109;48.050;11.696;2023-03-20T17:57:53;5.50;;;1.57;;
17967;SDS011;9109;48.050;11.696;2023-03-20T18:00:55;2.73;;;1.43;;
17967;SDS011;9109;48.050;11.696;2023-03-20T18:03:59;5.00;;;1.80;;
17967;SDS011;9109;48.050;11.696;2023-03-20T18:07:00;3.27;;;1.47;;
17967;SDS011;9109;48.050;11.696;2023-03-20T18:10:03;4.60;;;1.70;;
17967;SDS011;9109;48.050;11.696;2023-03-20T18:13:05;7.67;;;1.70;;
17967;SDS011;9109;48.050;11.696;2023-03-20T18:16:10;8.40;;;1.83;;
17967;SDS011;9109;48.050;11.696;2023-03-20T18:19:22;8.65;;;1.95;;
17967;SDS011;9109;48.050;11.696;2023-03-20T18:22:27;3.97;;;1.70;;
17967;SDS011;9109;48.050;11.696;2023-03-20T18:25:29;5.13;;;1.80;;
17967;SDS011;9109;48.050;11.696;2023-03-20T18:28:31;5.80;;;1.33;;
17967;SDS011;9109;48.050;11.696;2023-03-20T18:31:33;7.63;;;1.97;;
17967;SDS011;9109;48.050;11.696;2023-03-20T18:34:36;6.78;;;2.05;;
17967;SDS011;9109;48.050;11.696;2023-03-20T18:37:39;8.03;;;2.33;;
17967;SDS011;9109;48.050;11.696;2023-03-20T18:40:42;8.40;;;2.07;;
17967;SDS011;9109;48.050;11.696;2023-03-20T18:43:46;6.30;;;2.40;;
17967;SDS011;9109;48.050;11.696;2023-03-20T18:46:48;8.37;;;1.80;;
17967;SDS011;9109;48.050;11.696;2023-03-20T18:49:51;4.90;;;2.30;;
17967;SDS011;9109;48.050;11.696;2023-03-20T18:52:53;7.37;;;1.90;;
17967;SDS011;9109;48.050;11.696;2023-03-20T18:55:57;6.63;;;1.93;;
17967;SDS011;9109;48.050;11.696;2023-03-20T18:58:59;3.83;;;1.73;;
17967;SDS011;9109;48.050;11.696;2023-03-20T19:02:05;10.00;;;1.80;;
17967;SDS011;9109;48.050;11.696;2023-03-20T19:05:09;3.97;;;1.83;;
17967;SDS011;9109;48.050;11.696;2023-03-20T19:08:13;11.00;;;2.70;;
17967;SDS011;9109;48.050;11.696;2023-03-20T19:11:16;10.67;;;2.20;;
17967;SDS011;9109;48.050;11.696;2023-03-20T19:14:17;5.07;;;2.40;;
17967;SDS011;9109;48.050;11.696;2023-03-20T19:17:19;4.57;;;2.23;;
17967;SDS011;9109;48.050;11.696;2023-03-20T19:20:33;5.33;;;2.03;;
17967;SDS011;9109;48.050;11.696;2023-03-20T19:23:36;14.53;;;2.40;;
17967;SDS011;9109;48.050;11.696;2023-03-20T19:26:38;9.87;;;2.50;;
17967;SDS011;9109;48.050;11.696;2023-03-20T19:29:41;8.63;;;2.57;;
17967;SDS011;9109;48.050;11.696;2023-03-20T19:32:42;7.17;;;2.57;;
17967;SDS011;9109;48.050;11.696;2023-03-20T19:35:46;17.57;;;2.87;;
17967;SDS011;9109;48.050;11.696;2023-03-20T19:38:48;9.87;;;2.70;;
17967;SDS011;9109;48.050;11.696;2023-03-20T19:41:50;12.67;;;3.47;;
17967;SDS011;9109;48.050;11.696;2023-03-20T19:44:52;12.37;;;2.90;;
17967;SDS011;9109;48.050;11.696;2023-03-20T19:47:54;8.23;;;2.57;;
17967;SDS011;9109;48.050;11.696;2023-03-20T19:50:58;16.13;;;3.10;;
17967;SDS011;9109;48.050;11.696;2023-03-20T19:54:00;5.23;;;2.80;;
17967;SDS011;9109;48.050;11.696;2023-03-20T19:57:02;6.80;;;2.73;;
17967;SDS011;9109;48.050;11.696;2023-03-20T20:00:04;11.57;;;2.73;;
17967;SDS011;9109;48.050;11.696;2023-03-20T20:03:10;8.97;;;2.70;;
17967;SDS011;9109;48.050;11.696;2023-03-20T20:06:19;5.63;;;3.10;;
17967;SDS011;9109;48.050;11.696;2023-03-20T20:09:22;7.67;;;2.60;;
17967;SDS011;9109;48.050;11.696;2023-03-20T20:12:24;12.20;;;2.83;;
17967;SDS011;9109;48.050;11.696;2023-03-20T20:15:26;4.60;;;2.63;;
17967;SDS011;9109;48.050;11.696;2023-03-20T20:18:27;6.33;;;2.47;;
17967;SDS011;9109;48.050;11.696;2023-03-20T20:21:31;7.90;;;2.70;;
17967;SDS011;9109;48.050;11.696;2023-03-20T20:24:33;5.63;;;2.97;;
17967;SDS011;9109;48.050;11.696;2023-03-20T20:27:35;7.53;;;2.17;;
